createdAt,value
2022-07-30T00:01:26.140Z,84.19
2022-07-30T00:03:55.973Z,84.65
2022-07-30T00:06:25.691Z,83.56
2022-07-30T00:08:55.570Z,83.88
2022-07-30T00:11:28.315Z,83.84
2022-07-30T00:13:58.687Z,84.50
2022-07-30T00:16:28.396Z,84.10
2022-07-30T00:18:58.056Z,83.70
2022-07-30T00:21:36.349Z,84.27
2022-07-30T00:24:09.371Z,86.17
2022-07-30T00:26:41.830Z,86.67
2022-07-30T00:29:11.463Z,86.71
2022-07-30T00:31:41.157Z,88.18
2022-07-30T00:34:12.074Z,87.28
2022-07-30T00:36:41.872Z,87.29
2022-07-30T00:39:11.573Z,85.50
2022-07-30T00:42:03.797Z,87.39
2022-07-30T00:44:33.635Z,86.14
2022-07-30T00:47:03.680Z,87.15
2022-07-30T00:49:33.742Z,87.88
2022-07-30T00:52:03.362Z,89.31
2022-07-30T00:54:33.308Z,88.07
2022-07-30T00:57:05.682Z,87.67
2022-07-30T00:59:35.507Z,90.19
2022-07-30T01:02:05.318Z,89.41
2022-07-30T01:04:35.126Z,89.74
2022-07-30T01:07:04.844Z,88.50
2022-07-30T01:09:34.624Z,89.16
2022-07-30T01:12:08.456Z,88.39
2022-07-30T01:14:38.505Z,88.66
2022-07-30T01:17:09.184Z,88.88
2022-07-30T01:19:58.904Z,88.87
2022-07-30T01:22:42.553Z,88.47
2022-07-30T01:25:20.334Z,90.26
2022-07-30T01:27:57.780Z,89.34
2022-07-30T01:30:31.232Z,88.75
2022-07-30T01:33:02.864Z,89.19
2022-07-30T01:35:35.531Z,89.29
2022-07-30T01:38:08.493Z,89.25
2022-07-30T01:40:40.730Z,89.44
2022-07-30T01:43:14.043Z,89.18
2022-07-30T01:45:45.241Z,87.61
2022-07-30T01:48:16.624Z,87.01
2022-07-30T01:50:49.025Z,86.26
2022-07-30T01:53:22.074Z,85.52
2022-07-30T01:55:53.054Z,85.13
2022-07-30T01:58:30.796Z,83.36
2022-07-30T02:01:01.164Z,83.38
2022-07-30T02:03:32.465Z,84.09
2022-07-30T02:06:06.941Z,82.04
2022-07-30T02:08:41.776Z,82.11
2022-07-30T02:11:13.657Z,83.44
2022-07-30T02:13:53.433Z,83.82
2022-07-30T02:16:27.229Z,84.02
2022-07-30T02:19:04.501Z,83.91
2022-07-30T02:21:50.300Z,85.56
2022-07-30T02:24:24.722Z,84.23
2022-07-30T02:26:59.520Z,85.11
2022-07-30T02:29:34.361Z,85.61
2022-07-30T02:32:07.523Z,85.23
2022-07-30T02:34:40.541Z,85.44
2022-07-30T02:37:14.651Z,86.74
2022-07-30T02:39:48.446Z,84.57
2022-07-30T02:42:21.571Z,85.88
2022-07-30T02:44:56.373Z,85.69
2022-07-30T02:47:27.707Z,84.88
2022-07-30T02:49:59.742Z,85.06
2022-07-30T02:52:31.393Z,84.83
2022-07-30T02:55:03.958Z,85.91
2022-07-30T02:57:36.683Z,85.93
2022-07-30T03:00:17.097Z,85.85
2022-07-30T03:02:48.234Z,86.58
2022-07-30T03:05:18.960Z,85.49
2022-07-30T03:07:50.423Z,85.57
2022-07-30T03:10:21.086Z,86.57
2022-07-30T03:12:53.304Z,88.48
2022-07-30T03:15:26.940Z,89.00
2022-07-30T03:17:57.413Z,88.04
2022-07-30T03:20:32.410Z,87.38
2022-07-30T03:23:04.788Z,87.10
2022-07-30T03:25:35.613Z,86.60
2022-07-30T03:28:08.025Z,86.44
2022-07-30T03:30:40.703Z,86.05
2022-07-30T03:33:11.049Z,87.26
2022-07-30T03:35:45.608Z,86.29
2022-07-30T03:38:16.635Z,87.52
2022-07-30T03:40:47.283Z,88.17
2022-07-30T03:43:32.551Z,86.60
2022-07-30T03:46:07.912Z,86.08
2022-07-30T03:48:38.610Z,85.25
2022-07-30T03:51:10.859Z,85.43
2022-07-30T03:53:42.977Z,84.49
2022-07-30T03:56:13.769Z,85.88
2022-07-30T03:58:43.849Z,86.45
2022-07-30T04:01:16.389Z,85.96
2022-07-30T04:03:46.368Z,87.72
2022-07-30T04:06:16.090Z,86.63
2022-07-30T04:08:45.831Z,86.01
2022-07-30T04:11:15.481Z,85.62
2022-07-30T04:13:45.196Z,87.02
2022-07-30T04:16:38.795Z,87.04
2022-07-30T04:19:18.369Z,89.04
2022-07-30T04:21:50.792Z,89.20
2022-07-30T04:24:22.787Z,89.01
2022-07-30T04:26:54.673Z,87.91
2022-07-30T04:29:25.065Z,89.63
2022-07-30T04:31:57.706Z,89.39
2022-07-30T04:34:27.488Z,88.91
2022-07-30T04:36:57.231Z,87.81
2022-07-30T04:39:27.932Z,89.02
2022-07-30T04:41:57.712Z,89.01
2022-07-30T04:44:27.507Z,88.94
2022-07-30T04:47:00.052Z,88.27
2022-07-30T04:49:31.092Z,88.99
2022-07-30T04:52:01.820Z,88.12
2022-07-30T04:54:40.413Z,87.76
2022-07-30T04:57:12.123Z,87.30
2022-07-30T04:59:42.401Z,88.17
2022-07-30T05:02:15.812Z,86.58
2022-07-30T05:04:46.076Z,86.21
2022-07-30T05:07:18.109Z,85.48
2022-07-30T05:09:52.365Z,86.29
2022-07-30T05:12:22.181Z,86.91
2022-07-30T05:14:52.118Z,87.01
2022-07-30T05:17:24.519Z,85.41
2022-07-30T05:19:54.258Z,85.56
2022-07-30T05:22:25.760Z,83.96
2022-07-30T05:24:55.448Z,83.97
2022-07-30T05:27:25.297Z,79.57
2022-07-30T05:29:55.454Z,71.26
2022-07-30T05:32:27.888Z,67.49
2022-07-30T05:34:59.634Z,64.00
2022-07-30T05:37:29.393Z,60.05
2022-07-30T05:40:02.677Z,55.78
2022-07-30T05:42:33.346Z,51.61
2022-07-30T05:45:03.137Z,48.00
2022-07-30T05:47:35.775Z,45.14
2022-07-30T05:50:05.635Z,44.62
2022-07-30T05:52:35.897Z,43.72
2022-07-30T05:55:05.673Z,43.47
2022-07-30T05:57:37.892Z,43.54
2022-07-30T06:00:10.766Z,43.79
2022-07-30T06:02:43.545Z,44.89
2022-07-30T06:05:13.307Z,48.10
2022-07-30T06:07:43.081Z,49.54
2022-07-30T06:10:13.276Z,50.74
2022-07-30T06:12:43.203Z,51.18
2022-07-30T06:15:13.773Z,50.92
2022-07-30T06:17:57.114Z,52.03
2022-07-30T06:20:31.260Z,53.85
2022-07-30T06:23:01.141Z,55.42
2022-07-30T06:25:30.908Z,58.74
2022-07-30T06:28:10.684Z,58.26
2022-07-30T06:30:50.799Z,58.51
2022-07-30T06:33:23.172Z,58.46
2022-07-30T06:35:52.969Z,58.99
2022-07-30T06:38:22.730Z,58.73
2022-07-30T06:40:52.562Z,58.42
2022-07-30T06:43:22.234Z,57.50
2022-07-30T06:45:51.877Z,57.05
2022-07-30T06:48:24.493Z,55.53
2022-07-30T06:50:54.101Z,55.67
2022-07-30T06:53:23.731Z,55.98
2022-07-30T06:55:54.825Z,53.97
2022-07-30T06:58:28.574Z,53.22
2022-07-30T07:00:58.357Z,52.73
2022-07-30T07:03:39.876Z,52.31
2022-07-30T07:06:10.044Z,52.79
2022-07-30T07:08:40.121Z,53.38
2022-07-30T07:11:09.854Z,50.65
2022-07-30T07:13:39.509Z,50.79
2022-07-30T07:16:09.317Z,50.64
2022-07-30T07:18:41.580Z,48.02
2022-07-30T07:21:11.362Z,47.24
2022-07-30T07:23:42.305Z,47.75
2022-07-30T07:26:13.532Z,47.32
2022-07-30T07:28:43.468Z,48.00
2022-07-30T07:32:06.274Z,47.04
2022-07-30T07:34:06.488Z,46.31
2022-07-30T07:36:36.649Z,46.32
2022-07-30T07:39:09.996Z,46.00
2022-07-30T07:41:48.935Z,46.63
2022-07-30T07:44:19.251Z,45.59
2022-07-30T07:46:49.032Z,46.04
2022-07-30T07:49:21.469Z,44.50
2022-07-30T07:51:51.313Z,45.30
2022-07-30T07:54:22.955Z,45.13
2022-07-30T07:56:56.733Z,44.77
2022-07-30T07:59:40.261Z,44.09
2022-07-30T08:02:10.588Z,44.59
2022-07-30T08:04:43.007Z,43.58
2022-07-30T08:07:12.860Z,44.36
2022-07-30T08:09:44.595Z,43.84
2022-07-30T08:12:14.756Z,43.68
2022-07-30T08:14:44.473Z,43.14
2022-07-30T08:17:14.385Z,43.65
2022-07-30T08:19:46.793Z,43.11
2022-07-30T08:22:16.561Z,43.00
2022-07-30T08:24:46.520Z,43.59
2022-07-30T08:27:16.330Z,44.16
2022-07-30T08:29:46.165Z,43.37
2022-07-30T08:32:15.995Z,43.65
2022-07-30T08:34:48.363Z,43.50
2022-07-30T08:37:18.222Z,43.36
2022-07-30T08:39:47.989Z,43.01
2022-07-30T08:42:17.777Z,44.15
2022-07-30T08:44:48.526Z,43.13
2022-07-30T08:47:21.060Z,42.35
2022-07-30T08:49:54.211Z,42.72
2022-07-30T08:52:24.240Z,44.78
2022-07-30T08:54:54.010Z,42.82
2022-07-30T08:57:24.043Z,42.28
2022-07-30T08:59:59.790Z,40.76
2022-07-30T09:02:33.925Z,41.99
2022-07-30T09:05:07.053Z,42.20
2022-07-30T09:07:36.934Z,42.28
2022-07-30T09:10:07.927Z,43.06
2022-07-30T09:12:45.162Z,42.19
2022-07-30T09:15:18.306Z,41.19
2022-07-30T09:17:54.157Z,42.09
2022-07-30T09:20:28.292Z,41.98
2022-07-30T09:22:59.267Z,42.08
2022-07-30T09:25:43.330Z,41.91
2022-07-30T09:28:15.772Z,41.69
2022-07-30T09:30:48.835Z,39.98
2022-07-30T09:33:18.935Z,41.19
2022-07-30T09:35:59.148Z,40.95
2022-07-30T09:38:29.103Z,40.36
2022-07-30T09:41:04.894Z,40.51
2022-07-30T09:43:46.653Z,40.13
2022-07-30T09:46:16.850Z,39.94
2022-07-30T09:48:47.628Z,40.73
2022-07-30T09:51:24.000Z,40.93
2022-07-30T09:54:09.844Z,40.02
2022-07-30T09:56:40.160Z,39.54
2022-07-30T09:59:35.010Z,39.34
2022-07-30T10:02:05.426Z,39.89
2022-07-30T10:04:41.010Z,39.98
2022-07-30T10:07:24.975Z,39.25
2022-07-30T10:09:56.040Z,40.03
2022-07-30T10:12:28.387Z,40.04
2022-07-30T10:15:02.264Z,39.54
2022-07-30T10:17:38.704Z,39.72
2022-07-30T10:20:12.377Z,39.96
2022-07-30T10:22:48.111Z,39.01
2022-07-30T10:25:23.003Z,37.92
2022-07-30T10:27:58.022Z,36.42
2022-07-30T10:30:30.058Z,37.81
2022-07-30T10:33:01.487Z,38.32
2022-07-30T10:35:37.727Z,37.89
2022-07-30T10:38:14.218Z,37.96
2022-07-30T10:40:51.323Z,37.79
2022-07-30T10:43:38.139Z,37.89
2022-07-30T10:46:21.855Z,37.18
2022-07-30T10:48:53.011Z,37.87
2022-07-30T10:51:25.436Z,37.88
2022-07-30T10:54:06.929Z,37.27
2022-07-30T10:56:41.644Z,37.10
2022-07-30T10:59:12.629Z,36.64
2022-07-30T11:02:12.338Z,36.05
2022-07-30T11:04:42.229Z,37.23
2022-07-30T11:07:31.652Z,36.20
2022-07-30T11:10:09.316Z,35.99
2022-07-30T11:12:56.656Z,36.01
2022-07-30T11:15:28.132Z,34.91
2022-07-30T11:18:12.466Z,35.46
2022-07-30T11:20:48.622Z,35.76
2022-07-30T11:23:40.897Z,36.03
2022-07-30T11:26:14.183Z,36.34
2022-07-30T11:28:49.318Z,35.38
2022-07-30T11:31:54.884Z,35.47
2022-07-30T11:34:31.394Z,34.45
2022-07-30T11:37:31.784Z,33.58
2022-07-30T11:40:12.935Z,34.72
2022-07-30T11:42:45.670Z,35.35
2022-07-30T11:45:29.903Z,34.81
2022-07-30T11:48:03.055Z,34.44
2022-07-30T11:50:35.005Z,34.13
2022-07-30T11:53:06.988Z,34.55
2022-07-30T11:55:38.984Z,34.43
2022-07-30T11:58:13.148Z,33.55
2022-07-30T12:00:48.050Z,34.16
2022-07-30T12:03:20.315Z,34.29
2022-07-30T12:05:52.665Z,34.23
2022-07-30T12:08:35.285Z,33.53
2022-07-30T12:11:06.469Z,33.74
2022-07-30T12:13:43.484Z,33.76
2022-07-30T12:16:16.777Z,33.63
2022-07-30T12:18:47.350Z,33.53
2022-07-30T12:21:19.027Z,32.22
2022-07-30T12:23:57.689Z,33.48
2022-07-30T12:26:29.586Z,33.35
2022-07-30T12:29:04.993Z,33.07
2022-07-30T12:31:38.426Z,32.42
2022-07-30T12:34:22.182Z,32.78
2022-07-30T12:36:52.027Z,33.17
2022-07-30T12:39:23.768Z,32.34
2022-07-30T12:41:56.284Z,33.03
2022-07-30T12:44:42.680Z,32.80
2022-07-30T12:47:24.184Z,34.00
2022-07-30T12:49:55.661Z,32.86
2022-07-30T12:52:31.287Z,33.87
2022-07-30T12:55:02.955Z,33.14
2022-07-30T12:57:54.818Z,33.16
2022-07-30T13:00:28.638Z,32.68
2022-07-30T13:02:58.635Z,33.21
2022-07-30T13:05:49.910Z,32.59
2022-07-30T13:08:20.499Z,32.00
2022-07-30T13:11:00.942Z,32.64
2022-07-30T13:13:32.975Z,32.56
2022-07-30T13:16:08.026Z,32.79
2022-07-30T13:18:39.284Z,33.60
2022-07-30T13:21:11.455Z,34.20
2022-07-30T13:23:43.524Z,34.27
2022-07-30T13:26:13.707Z,34.15
2022-07-30T13:28:46.671Z,33.97
2022-07-30T13:31:19.269Z,34.17
2022-07-30T13:33:50.053Z,33.74
2022-07-30T13:36:20.548Z,34.18
2022-07-30T13:38:52.275Z,33.64
2022-07-30T13:41:22.196Z,34.19
2022-07-30T13:43:51.935Z,33.70
2022-07-30T13:46:24.530Z,34.35
2022-07-30T13:48:55.139Z,33.99
2022-07-30T13:51:24.951Z,34.36
2022-07-30T13:53:55.074Z,35.15
2022-07-30T13:56:24.808Z,34.71
2022-07-30T13:58:55.040Z,34.93
2022-07-30T14:01:27.403Z,34.77
2022-07-30T14:03:57.159Z,34.66
2022-07-30T14:06:29.928Z,34.25
2022-07-30T14:09:00.471Z,33.86
2022-07-30T14:11:30.756Z,33.83
2022-07-30T14:14:00.454Z,34.26
2022-07-30T14:16:45.293Z,34.05
2022-07-30T14:19:24.177Z,34.36
2022-07-30T14:21:55.530Z,34.55
2022-07-30T14:24:25.794Z,34.46
2022-07-30T14:26:58.149Z,34.09
2022-07-30T14:29:28.802Z,33.47
2022-07-30T14:32:01.016Z,32.84
2022-07-30T14:34:31.050Z,33.40
2022-07-30T14:37:05.024Z,32.63
2022-07-30T14:39:34.996Z,33.38
2022-07-30T14:42:06.382Z,33.26
2022-07-30T14:44:36.201Z,33.16
2022-07-30T14:47:09.205Z,33.56
2022-07-30T14:49:39.166Z,33.95
2022-07-30T14:52:09.476Z,34.30
2022-07-30T14:54:39.104Z,34.31
2022-07-30T14:57:10.315Z,34.11
2022-07-30T14:59:40.024Z,34.56
2022-07-30T15:02:12.479Z,34.43
2022-07-30T15:04:42.183Z,34.96
2022-07-30T15:07:13.160Z,35.09
2022-07-30T15:09:43.087Z,35.02
2022-07-30T15:12:13.286Z,35.30
2022-07-30T15:14:51.366Z,35.91
2022-07-30T15:17:24.782Z,35.32
2022-07-30T15:19:54.503Z,35.42
2022-07-30T15:22:24.209Z,35.43
2022-07-30T15:24:53.864Z,35.57
2022-07-30T15:27:31.781Z,36.32
2022-07-30T15:30:03.520Z,35.04
2022-07-30T15:32:35.860Z,34.88
2022-07-30T15:35:08.379Z,35.39
2022-07-30T15:37:41.186Z,35.40
2022-07-30T15:40:11.831Z,34.62
2022-07-30T15:42:42.749Z,34.72
2022-07-30T15:45:17.567Z,34.76
2022-07-30T15:47:50.309Z,34.57
2022-07-30T15:50:20.259Z,34.80
2022-07-30T15:52:49.933Z,34.72
2022-07-30T15:55:19.922Z,34.81
2022-07-30T15:57:49.642Z,34.78
2022-07-30T16:00:19.740Z,34.53
2022-07-30T16:02:52.116Z,34.18
2022-07-30T16:05:21.885Z,35.31
2022-07-30T16:07:52.034Z,35.52
2022-07-30T16:10:21.859Z,35.38
2022-07-30T16:12:51.625Z,36.08
2022-07-30T16:15:21.441Z,35.60
2022-07-30T16:17:53.789Z,36.01
2022-07-30T16:20:23.723Z,35.85
2022-07-30T16:22:53.499Z,36.46
2022-07-30T16:25:23.228Z,36.14
2022-07-30T16:27:53.379Z,36.49
2022-07-30T16:30:27.588Z,36.54
2022-07-30T16:33:00.079Z,35.92
2022-07-30T16:35:29.878Z,36.35
2022-07-30T16:38:02.886Z,37.13
2022-07-30T16:40:32.729Z,37.14
2022-07-30T16:43:02.541Z,36.95
2022-07-30T16:45:33.770Z,36.85
2022-07-30T16:48:06.566Z,36.50
2022-07-30T16:50:36.415Z,36.32
2022-07-30T16:53:08.528Z,36.61
2022-07-30T16:55:41.561Z,36.85
2022-07-30T16:58:11.285Z,36.42
2022-07-30T17:00:41.480Z,36.75
2022-07-30T17:03:20.076Z,36.24
2022-07-30T17:05:50.607Z,36.45
2022-07-30T17:08:24.581Z,36.27
2022-07-30T17:10:54.518Z,36.17
2022-07-30T17:13:27.083Z,35.99
2022-07-30T17:15:56.911Z,36.92
2022-07-30T17:18:29.265Z,36.14
2022-07-30T17:20:58.997Z,36.25
2022-07-30T17:23:28.713Z,36.21
2022-07-30T17:25:58.549Z,36.27
2022-07-30T17:28:28.355Z,35.52
2022-07-30T17:30:58.013Z,36.06
2022-07-30T17:33:32.134Z,36.42
2022-07-30T17:36:01.857Z,36.32
2022-07-30T17:38:31.625Z,39.59
2022-07-30T17:41:01.308Z,37.25
2022-07-30T17:43:31.079Z,38.87
2022-07-30T17:46:00.763Z,38.65
2022-07-30T17:48:33.130Z,39.58
2022-07-30T17:51:02.963Z,40.62
2022-07-30T17:53:34.953Z,42.78
2022-07-30T17:56:05.709Z,46.69
2022-07-30T17:58:38.691Z,43.39
2022-07-30T18:01:08.603Z,44.91
2022-07-30T18:03:45.238Z,43.53
2022-07-30T18:06:15.097Z,41.34
2022-07-30T18:08:44.888Z,41.55
2022-07-30T18:11:14.690Z,43.61
2022-07-30T18:13:44.614Z,40.44
2022-07-30T18:16:14.371Z,40.08
2022-07-30T18:18:46.622Z,39.68
2022-07-30T18:21:16.452Z,40.25
2022-07-30T18:23:46.094Z,38.81
2022-07-30T18:26:15.827Z,42.13
2022-07-30T18:28:47.460Z,42.08
2022-07-30T18:31:17.185Z,42.85
2022-07-30T18:33:49.471Z,43.23
2022-07-30T18:36:19.155Z,45.73
2022-07-30T18:38:49.847Z,43.37
2022-07-30T18:41:21.923Z,45.49
2022-07-30T18:43:51.614Z,46.59
2022-07-30T18:46:21.373Z,45.92
2022-07-30T18:48:53.758Z,46.07
2022-07-30T18:51:25.312Z,44.86
2022-07-30T18:53:55.258Z,45.24
2022-07-30T18:56:24.948Z,46.22
2022-07-30T18:58:54.629Z,45.50
2022-07-30T19:01:24.391Z,46.30
2022-07-30T19:03:56.833Z,45.49
2022-07-30T19:06:26.491Z,44.52
2022-07-30T19:08:56.216Z,44.72
2022-07-30T19:11:25.928Z,44.06
2022-07-30T19:13:55.877Z,44.03
2022-07-30T19:16:25.675Z,44.21
2022-07-30T19:18:58.096Z,44.62
2022-07-30T19:21:27.932Z,44.89
2022-07-30T19:23:57.650Z,44.29
2022-07-30T19:26:27.368Z,44.89
2022-07-30T19:28:57.115Z,45.13
2022-07-30T19:31:27.173Z,45.67
2022-07-30T19:33:59.442Z,45.37
2022-07-30T19:36:30.335Z,45.68
2022-07-30T19:39:06.832Z,46.29
2022-07-30T19:41:40.934Z,46.51
2022-07-30T19:44:11.495Z,47.21
2022-07-30T19:46:42.000Z,47.50
2022-07-30T19:49:15.185Z,48.44
2022-07-30T19:52:07.461Z,48.18
2022-07-30T19:54:36.798Z,48.39
2022-07-30T19:57:06.890Z,48.94
2022-07-30T19:59:45.269Z,49.16
2022-07-30T20:02:26.679Z,48.86
2022-07-30T20:04:59.478Z,49.81
2022-07-30T20:07:31.250Z,51.06
2022-07-30T20:10:02.699Z,50.74
2022-07-30T20:12:32.783Z,49.12
2022-07-30T20:15:03.367Z,48.62
2022-07-30T20:17:35.011Z,48.33
2022-07-30T20:20:09.166Z,49.27
2022-07-30T20:22:39.415Z,48.94
2022-07-30T20:25:11.765Z,48.73
2022-07-30T20:27:43.247Z,48.41
2022-07-30T20:30:14.699Z,48.35
2022-07-30T20:32:47.000Z,49.03
2022-07-30T20:35:21.547Z,49.85
2022-07-30T20:37:55.612Z,50.36
2022-07-30T20:40:28.164Z,51.21
2022-07-30T20:42:57.891Z,52.63
2022-07-30T20:45:37.780Z,52.35
2022-07-30T20:48:17.221Z,52.30
2022-07-30T20:50:58.017Z,52.18
2022-07-30T20:53:36.769Z,53.17
2022-07-30T20:56:07.352Z,53.00
2022-07-30T20:58:37.758Z,53.59
2022-07-30T21:01:07.590Z,53.80
2022-07-30T21:03:37.618Z,54.21
2022-07-30T21:06:10.092Z,54.67
2022-07-30T21:08:41.199Z,55.08
2022-07-30T21:11:12.429Z,55.72
2022-07-30T21:13:42.551Z,55.46
2022-07-30T21:16:16.291Z,55.65
2022-07-30T21:18:49.896Z,56.40
2022-07-30T21:21:28.888Z,56.71
2022-07-30T21:24:11.909Z,57.44
2022-07-30T21:26:42.625Z,57.38
2022-07-30T21:29:12.884Z,56.64
2022-07-30T21:32:01.514Z,57.14
2022-07-30T21:34:40.179Z,56.95
2022-07-30T21:37:15.636Z,57.42
2022-07-30T21:39:45.686Z,57.48
2022-07-30T21:42:17.406Z,56.88
2022-07-30T21:44:55.703Z,57.57
2022-07-30T21:47:25.553Z,57.87
2022-07-30T21:49:55.787Z,58.71
2022-07-30T21:52:29.543Z,59.56
2022-07-30T21:55:04.044Z,59.06
2022-07-30T21:57:34.596Z,59.13
2022-07-30T22:00:07.729Z,58.59
2022-07-30T22:02:38.928Z,59.21
2022-07-30T22:05:23.678Z,58.46
2022-07-30T22:07:57.231Z,59.59
2022-07-30T22:10:26.996Z,58.74
2022-07-30T22:12:57.798Z,59.18
2022-07-30T22:15:28.462Z,59.43
2022-07-30T22:18:00.817Z,59.90
2022-07-30T22:20:31.829Z,59.65
2022-07-30T22:23:06.918Z,59.27
2022-07-30T22:25:39.732Z,58.23
2022-07-30T22:28:13.817Z,60.21
2022-07-30T22:30:46.694Z,59.15
2022-07-30T22:33:19.451Z,59.94
2022-07-30T22:35:50.587Z,60.49
2022-07-30T22:38:22.930Z,60.76
2022-07-30T22:40:52.722Z,60.59
2022-07-30T22:43:23.112Z,60.41
2022-07-30T22:46:02.866Z,60.96
2022-07-30T22:48:44.865Z,60.58
2022-07-30T22:51:14.984Z,60.11
2022-07-30T22:54:11.044Z,59.70
2022-07-30T22:56:39.389Z,59.60
2022-07-30T22:59:09.230Z,59.62
2022-07-30T23:01:43.390Z,60.63
2022-07-30T23:04:13.609Z,61.07
2022-07-30T23:06:44.836Z,61.05
2022-07-30T23:09:17.909Z,60.91
2022-07-30T23:11:49.918Z,60.91
2022-07-30T23:14:21.100Z,61.17
2022-07-30T23:16:50.796Z,61.20
2022-07-30T23:19:22.237Z,62.90
2022-07-30T23:21:52.455Z,63.42
2022-07-30T23:24:24.732Z,62.71
2022-07-30T23:26:54.454Z,62.43
2022-07-30T23:29:24.223Z,61.60
2022-07-30T23:31:53.903Z,62.34
2022-07-30T23:34:23.626Z,64.11
2022-07-30T23:36:53.437Z,63.58
2022-07-30T23:39:26.003Z,62.44
2022-07-30T23:41:55.728Z,62.96
2022-07-30T23:44:25.456Z,62.29
2022-07-30T23:46:55.216Z,62.99
2022-07-30T23:49:25.247Z,62.88
2022-07-30T23:51:55.056Z,63.16
2022-07-30T23:54:27.857Z,62.93
2022-07-30T23:56:58.011Z,63.73
2022-07-30T23:59:36.756Z,64.06
